Impacts METAR Board
IDs:

KPIT - Pittsburgh Intl, PA, US

Updated at: 0700 UTC 07 Dec 2022
Potential Impact None Slight Moderate High
Time 06/19Z 06/20Z 06/21Z 06/22Z 06/23Z 07/00Z 07/01Z 07/02Z 07/03Z 07/04Z 07/05Z 07/06Z 07/07Z
Temp44 45 45 46 46 46 46 47 48 49 49 50 50
Dewpt44 44 44 45 45 45 46 46 47 48 48 50 50
Altim30.04 30.03 30.03 30.03 30.03 30.04 30.04 30.04 30.05 30.06 30.05 30.05 30.07
VIS0.25 0.25 0.25 0.25 2 1 1 0.5 0.5 0.75 0.75 0.5 0.5
CIG1 2 1 1 2 3 2 1 1 2 3 2 2
CoverOVXOVCOVXOVXOVCOVCOVCOVXOVXOVXOVXOVXOVX
FltCatLIFRLIFRLIFRLIFRLIFRLIFRLIFRLIFRLIFRLIFRLIFRLIFRLIFR
WX-RA FGBR-RA FG-RA BR-RA BR-RA BRBR-RA FG-RA FGBR-DZ BR-RA FG-RA FG
WDir0100900090130150016014000
WSpd0 5 4 0 0 3 3 4 0 3 3 0 0
WGst-- -- -- -- -- -- -- -- -- -- -- -- --
Raw hourly METARs
KPIT 061851Z 00000KT 1/4SM R28R/3000V3500FT -RA FG VV001 07/07 A3004 RMK AO2 DZB08E32RAB46 SLP188 P0000 T00670067
KPIT 061951Z 10005KT 1/4SM R28R/5500VP6000FT BR OVC002 07/07 A3003 RMK AO2 SFC VIS 1 RAE21 SLP183 P0001 T00720067
KPIT 062051Z 09004KT 1/4SM R28R/2600V3500FT -RA FG VV001 07/07 A3003 RMK AO2 RAB47 SLP182 P0000 60001 T00720067 58007
KPIT 062151Z 00000KT 1/4SM R28R/P6000FT -RA BR VV001 08/07 A3003 RMK AO2 SFC VIS 1 SLP184 P0004 T00780072
KPIT 062251Z 00000KT 2SM -RA BR BKN002 OVC032 08/07 A3003 RMK AO2 SLP185 P0009 T00780072
KPIT 062351Z 09003KT 1SM R28R/P6000FT -RA BR OVC003 08/07 A3004 RMK AO2 SLP185 P0004 60018 T00780072 10078 20067 51003
KPIT 070051Z 13003KT 1SM R28R/P6000FT BR OVC002 08/08 A3004 RMK AO2 RAE23DZB23E48 SLP185 P0000 T00780078
KPIT 070151Z 15004KT 1/2SM R28R/2600V5500FT -RA FG VV001 08/08 A3004 RMK AO2 DZB25E51RAB51 SLP186 P0000 T00830078
KPIT 070251Z 00000KT 1/2SM R28R/P6000FT -RA FG VV001 09/08 A3005 RMK AO2 RAE06B50DZB06E50 SLP187 P0000 60000 T00890083 53004
KPIT 070351Z 16003KT 3/4SM R28R/P6000FT BR VV002 09/09 A3006 RMK AO2 RAE28 SLP190 P0000 T00940089 $
KPIT 070451Z 14003KT 3/4SM R28R/6000VP6000FT -DZ BR VV003 09/09 A3005 RMK AO2 DZB29 SLP189 P0000 T00940089 400940033 $
KPIT 070551Z 00000KT 1/2SM R28R/2200V2600FT -RA FG VV002 10/10 A3005 RMK AO2 DZE47RAB47 SLP189 P0001 60001 T01000100 10100 20078 51002 $
KPIT 070651Z 00000KT 1/2SM R28R/2600VP6000FT -RA FG VV002 10/10 A3007 RMK AO2 SLP195 P0001 T01000100 $



Page loaded:  07:58 UTC  |   11:58 PM Pacific  |   12:58 AM Mountain  |   01:58 AM Central  |   02:58 AM Eastern

 

ADVISORIES

FORECASTS

FORECASTS

OBSERVATIONS

USER TOOLS

ABOUT US